Time;durP1;ratioP1;P1;durP2;ratioP2;P2;SDS_P1;SDS_P2;PMS_P1;PMS_P2;Temp;Humidity;BMP_temperature;BMP_pressure;BME280_temperature;BME280_humidity;BME280_pressure;Samples;Min_cycle;Max_cycle;Signal;HPM_P1;HPM_P2
2022/02/12 00:01:58;;;;;;;;;;;4.30;99.90;;;;;;4176821;28;19917;-58
2022/02/12 00:03:59;;;;;;;;;;;4.30;99.90;;;;;;4178267;28;19916;-59
2022/02/12 00:06:00;;;;;;;;;;;4.30;99.90;;;;;;4174254;28;20328;-57
2022/02/12 00:08:01;;;;;;;;;;;4.30;99.90;;;;;;4182152;28;20035;-58
2022/02/12 00:10:03;;;;;;;;;;;4.30;99.90;;;;;;4182316;28;20010;-59
2022/02/12 00:12:04;;;;;;;;;;;4.20;99.90;;;;;;4182847;28;20378;-57
2022/02/12 00:14:05;;;;;;;;;;;4.20;99.90;;;;;;4174910;28;19920;-61
2022/02/12 00:16:06;;;;;;;;;;;4.20;99.90;;;;;;4179604;28;19920;-60
2022/02/12 00:18:07;;;;;;;;;;;4.10;99.90;;;;;;4179484;28;19924;-59
2022/02/12 00:20:08;;;;;;;;;;;4.10;99.90;;;;;;4173459;28;19990;-61
2022/02/12 00:22:10;;;;;;;;;;;4.00;99.90;;;;;;4180818;28;20018;-58
2022/02/12 00:24:11;;;;;;;;;;;4.00;99.90;;;;;;4181146;28;19932;-58
2022/02/12 00:26:12;;;;;;;;;;;4.00;99.90;;;;;;4179528;28;20428;-62
2022/02/12 00:28:12;;;;;;;;;;;3.90;99.90;;;;;;4181310;28;19981;-58
2022/02/12 00:30:13;;;;;;;;;;;3.90;99.90;;;;;;4181604;28;19921;-60
2022/02/12 00:32:14;;;;;;;;;;;3.80;99.90;;;;;;4175575;28;19917;-55
2022/02/12 00:34:15;;;;;;;;;;;3.80;99.90;;;;;;4178005;28;20012;-55
2022/02/12 00:36:16;;;;;;;;;;;3.80;99.90;;;;;;4179219;28;19924;-67
2022/02/12 00:38:17;;;;;;;;;;;3.70;99.90;;;;;;4174325;28;20387;-55
2022/02/12 00:40:22;;;;;;;;;;;3.70;99.90;;;;;;4179756;28;19969;-59
2022/02/12 00:42:23;;;;;;;;;;;3.70;99.90;;;;;;4173444;28;20368;-64
2022/02/12 00:44:24;;;;;;;;;;;3.60;99.90;;;;;;4176397;28;20015;-56
2022/02/12 00:46:25;;;;;;;;;;;3.60;99.90;;;;;;4179034;28;19927;-65
2022/02/12 00:48:25;;;;;;;;;;;3.60;99.90;;;;;;4188551;28;20491;-56
2022/02/12 00:50:27;;;;;;;;;;;3.50;99.90;;;;;;4188473;28;20776;-68
2022/02/12 00:52:28;;;;;;;;;;;3.50;99.90;;;;;;4178255;28;19916;-57
2022/02/12 00:54:29;;;;;;;;;;;3.40;99.90;;;;;;4188503;28;19912;-56
2022/02/12 00:56:30;;;;;;;;;;;3.40;99.90;;;;;;4173903;28;19932;-56
2022/02/12 00:58:30;;;;;;;;;;;3.40;99.90;;;;;;4178175;28;19919;-55
2022/02/12 01:00:33;;;;;;;;;;;3.40;99.90;;;;;;4190887;28;19923;-54
2022/02/12 01:02:34;;;;;;;;;;;3.40;99.90;;;;;;4190869;28;19962;-56
2022/02/12 01:04:35;;;;;;;;;;;3.40;99.90;;;;;;4176203;28;19917;-57
2022/02/12 01:06:36;;;;;;;;;;;3.40;99.90;;;;;;4174411;28;20023;-56
2022/02/12 01:08:37;;;;;;;;;;;3.30;99.90;;;;;;4189689;28;19967;-58
2022/02/12 01:10:38;;;;;;;;;;;3.30;99.90;;;;;;4190888;28;19962;-54
2022/02/12 01:12:39;;;;;;;;;;;3.30;99.90;;;;;;4190572;28;20690;-57
2022/02/12 01:14:40;;;;;;;;;;;3.30;99.90;;;;;;4191545;28;19917;-57
2022/02/12 01:16:41;;;;;;;;;;;3.30;99.90;;;;;;4184812;28;20384;-54
2022/02/12 01:18:42;;;;;;;;;;;3.30;99.90;;;;;;4174226;28;19916;-52
2022/02/12 01:20:43;;;;;;;;;;;3.20;99.90;;;;;;4174994;28;19917;-55
2022/02/12 01:22:46;;;;;;;;;;;3.20;99.90;;;;;;4187452;28;20835;-54
2022/02/12 01:24:47;;;;;;;;;;;3.20;99.90;;;;;;4187300;28;19916;-54
2022/02/12 01:26:51;;;;;;;;;;;3.20;99.90;;;;;;4173675;28;19909;-57
2022/02/12 01:28:52;;;;;;;;;;;3.20;99.90;;;;;;4188431;28;19974;-58
2022/02/12 01:30:53;;;;;;;;;;;3.10;99.90;;;;;;4175746;28;20410;-56
2022/02/12 01:32:53;;;;;;;;;;;3.10;99.90;;;;;;4178306;28;20323;-56
2022/02/12 01:34:55;;;;;;;;;;;3.00;99.90;;;;;;4189696;28;19919;-55
2022/02/12 01:36:56;;;;;;;;;;;3.00;99.90;;;;;;4189892;28;19949;-58
2022/02/12 01:38:57;;;;;;;;;;;3.00;99.90;;;;;;4189884;28;19912;-56
2022/02/12 01:40:58;;;;;;;;;;;2.90;99.90;;;;;;4183889;28;19923;-54
2022/02/12 01:43:02;;;;;;;;;;;2.90;99.90;;;;;;4190235;28;20352;-55
2022/02/12 01:45:03;;;;;;;;;;;2.90;99.90;;;;;;4189564;28;19913;-56
2022/02/12 01:47:05;;;;;;;;;;;2.80;99.90;;;;;;4189690;28;20247;-53
2022/02/12 01:49:06;;;;;;;;;;;2.80;99.90;;;;;;4189990;28;19978;-50
2022/02/12 01:51:07;;;;;;;;;;;2.80;99.90;;;;;;4187867;28;19920;-51
2022/02/12 01:53:09;;;;;;;;;;;2.80;99.90;;;;;;4190006;28;19912;-57
2022/02/12 01:55:12;;;;;;;;;;;2.70;99.90;;;;;;4187928;28;19974;-57
2022/02/12 01:57:13;;;;;;;;;;;2.70;99.90;;;;;;4188140;28;19924;-55
2022/02/12 01:59:14;;;;;;;;;;;2.70;99.90;;;;;;4189703;28;20750;-58
2022/02/12 02:01:16;;;;;;;;;;;2.70;99.90;;;;;;4188382;28;20715;-57
2022/02/12 02:03:17;;;;;;;;;;;2.70;99.90;;;;;;4173032;28;19970;-58
2022/02/12 02:05:19;;;;;;;;;;;2.60;99.90;;;;;;4182301;28;19962;-65
2022/02/12 02:07:20;;;;;;;;;;;2.50;99.90;;;;;;4189289;28;20254;-54
2022/02/12 02:09:21;;;;;;;;;;;2.60;99.90;;;;;;4188345;28;19970;-53
2022/02/12 02:11:22;;;;;;;;;;;2.50;99.90;;;;;;4183523;28;20388;-55
2022/02/12 02:13:24;;;;;;;;;;;2.50;99.90;;;;;;4173428;28;20320;-56
2022/02/12 02:15:25;;;;;;;;;;;2.50;99.90;;;;;;4172826;28;19971;-56
2022/02/12 02:17:26;;;;;;;;;;;2.50;99.90;;;;;;4173407;28;19919;-55
2022/02/12 02:19:27;;;;;;;;;;;2.40;99.90;;;;;;4173174;28;20715;-55
2022/02/12 02:21:28;;;;;;;;;;;2.40;99.90;;;;;;4175087;28;19921;-56
2022/02/12 02:23:29;;;;;;;;;;;2.40;99.90;;;;;;4189272;28;19958;-60
2022/02/12 02:25:30;;;;;;;;;;;2.30;99.90;;;;;;4189697;28;19912;-56
2022/02/12 02:27:31;;;;;;;;;;;2.30;99.90;;;;;;4177459;28;19912;-70
2022/02/12 02:29:32;;;;;;;;;;;2.30;99.90;;;;;;4173871;28;20004;-59
2022/02/12 02:31:33;;;;;;;;;;;2.30;99.90;;;;;;4174146;28;19970;-56
2022/02/12 02:33:34;;;;;;;;;;;2.30;99.90;;;;;;4172913;28;19975;-54
2022/02/12 02:35:35;;;;;;;;;;;2.20;99.90;;;;;;4173266;28;19964;-66
2022/02/12 02:37:36;;;;;;;;;;;2.20;99.90;;;;;;4171976;28;20018;-55
2022/02/12 02:39:36;;;;;;;;;;;2.20;99.90;;;;;;4172425;28;19920;-58
2022/02/12 02:41:37;;;;;;;;;;;2.20;99.90;;;;;;4177864;28;19917;-57
2022/02/12 02:43:40;;;;;;;;;;;2.10;99.90;;;;;;4173251;28;19918;-54
2022/02/12 02:45:40;;;;;;;;;;;2.10;99.90;;;;;;4154545;28;19971;-57
2022/02/12 02:47:43;;;;;;;;;;;2.10;99.90;;;;;;4173507;28;20352;-56
2022/02/12 02:49:44;;;;;;;;;;;2.10;99.90;;;;;;4185519;28;19982;-53
2022/02/12 02:56:24;;;;;;;;;;;1.90;99.90;;;;;;4189317;28;20426;-54
2022/02/12 02:58:38;;;;;;;;;;;1.90;99.90;;;;;;4182489;28;19971;-54
2022/02/12 03:00:39;;;;;;;;;;;1.80;99.90;;;;;;4180987;28;19978;-52
2022/02/12 03:02:40;;;;;;;;;;;1.80;99.90;;;;;;4189297;28;19936;-56
2022/02/12 03:04:41;;;;;;;;;;;1.70;99.90;;;;;;4188976;28;19923;-56
2022/02/12 03:06:42;;;;;;;;;;;1.70;99.90;;;;;;4187228;28;20323;-55
2022/02/12 03:08:43;;;;;;;;;;;1.70;99.90;;;;;;4187108;28;19986;-67
2022/02/12 03:10:44;;;;;;;;;;;1.70;99.90;;;;;;4188504;28;19944;-61
2022/02/12 03:12:45;;;;;;;;;;;1.70;99.90;;;;;;4188979;28;19964;-54
2022/02/12 03:14:45;;;;;;;;;;;1.70;99.90;;;;;;4188662;28;19928;-59
2022/02/12 03:16:46;;;;;;;;;;;1.70;99.90;;;;;;4184175;28;20376;-55
2022/02/12 03:18:48;;;;;;;;;;;1.60;99.90;;;;;;4172890;28;19912;-60
2022/02/12 03:20:49;;;;;;;;;;;1.60;99.90;;;;;;4172888;28;19959;-53
2022/02/12 03:22:50;;;;;;;;;;;1.60;99.90;;;;;;4188332;28;19920;-55
2022/02/12 03:24:52;;;;;;;;;;;1.60;99.90;;;;;;4184458;28;19970;-57
2022/02/12 03:26:54;;;;;;;;;;;1.50;99.90;;;;;;4186030;28;19935;-51
2022/02/12 03:28:55;;;;;;;;;;;1.50;99.90;;;;;;4185602;28;20021;-57
2022/02/12 03:30:56;;;;;;;;;;;1.50;99.90;;;;;;4172174;28;19913;-55
2022/02/12 03:32:57;;;;;;;;;;;1.50;99.90;;;;;;4172114;28;19913;-57
2022/02/12 03:34:57;;;;;;;;;;;1.50;99.90;;;;;;4173371;28;19952;-55
2022/02/12 03:36:58;;;;;;;;;;;1.50;99.90;;;;;;4172771;28;19956;-50
2022/02/12 03:39:01;;;;;;;;;;;1.50;99.90;;;;;;4172311;28;20323;-57
2022/02/12 03:41:04;;;;;;;;;;;1.40;99.90;;;;;;4176912;28;20622;-56
2022/02/12 03:43:05;;;;;;;;;;;1.40;99.90;;;;;;4174616;28;19920;-50
2022/02/12 03:45:06;;;;;;;;;;;1.40;99.90;;;;;;4175061;28;19913;-54
2022/02/12 03:47:07;;;;;;;;;;;1.40;99.90;;;;;;4176855;28;20376;-57
2022/02/12 03:49:08;;;;;;;;;;;1.40;99.90;;;;;;4182254;28;19970;-55
2022/02/12 03:51:09;;;;;;;;;;;1.40;99.90;;;;;;4191229;28;19913;-57
2022/02/12 03:53:10;;;;;;;;;;;1.30;99.90;;;;;;4175393;28;19920;-59
2022/02/12 03:55:11;;;;;;;;;;;1.30;99.90;;;;;;4176111;28;19955;-57
2022/02/12 03:57:12;;;;;;;;;;;1.30;99.90;;;;;;4187115;28;19913;-58
2022/02/12 03:59:13;;;;;;;;;;;1.30;99.90;;;;;;4175868;28;20460;-56
2022/02/12 04:01:14;;;;;;;;;;;1.40;99.90;;;;;;4191275;28;19966;-56
2022/02/12 04:03:17;;;;;;;;;;;1.30;99.90;;;;;;4191796;28;20434;-61
2022/02/12 04:05:17;;;;;;;;;;;1.30;99.90;;;;;;4191440;28;19916;-54
2022/02/12 04:07:18;;;;;;;;;;;1.30;99.90;;;;;;4190813;28;19913;-57
2022/02/12 04:09:19;;;;;;;;;;;1.30;99.90;;;;;;4191154;28;19916;-52
2022/02/12 04:11:21;;;;;;;;;;;1.20;99.90;;;;;;4190054;28;20485;-56
2022/02/12 04:13:22;;;;;;;;;;;1.20;99.90;;;;;;4192077;28;19916;-55
2022/02/12 04:15:24;;;;;;;;;;;1.20;99.90;;;;;;4191694;28;19920;-58
2022/02/12 04:17:25;;;;;;;;;;;1.20;99.90;;;;;;4189266;28;19909;-58
2022/02/12 04:19:26;;;;;;;;;;;1.20;99.90;;;;;;4191512;28;19970;-54
2022/02/12 04:21:27;;;;;;;;;;;1.20;99.90;;;;;;4188093;28;20421;-56
2022/02/12 04:23:28;;;;;;;;;;;1.20;99.90;;;;;;4175082;28;19924;-54
2022/02/12 04:25:29;;;;;;;;;;;1.20;99.90;;;;;;4175388;28;20361;-61
2022/02/12 04:27:30;;;;;;;;;;;1.20;99.90;;;;;;4183519;28;19920;-55
2022/02/12 04:29:31;;;;;;;;;;;1.20;99.90;;;;;;4191111;28;19924;-56
2022/02/12 04:31:32;;;;;;;;;;;1.20;99.90;;;;;;4186144;28;19919;-51
2022/02/12 04:33:34;;;;;;;;;;;1.20;99.90;;;;;;4179656;28;19967;-56
2022/02/12 04:35:35;;;;;;;;;;;1.20;99.90;;;;;;4191182;28;19912;-54
2022/02/12 04:37:36;;;;;;;;;;;1.10;99.90;;;;;;4175511;28;19971;-54
2022/02/12 04:39:37;;;;;;;;;;;1.10;99.90;;;;;;4174584;28;20472;-62
2022/02/12 04:41:38;;;;;;;;;;;1.10;99.90;;;;;;4178154;28;20369;-59
2022/02/12 04:43:39;;;;;;;;;;;1.10;99.90;;;;;;4174190;28;19963;-56
2022/02/12 04:45:40;;;;;;;;;;;1.10;99.90;;;;;;4174681;28;20739;-57
2022/02/12 04:47:41;;;;;;;;;;;1.10;99.90;;;;;;4174222;28;19951;-58
2022/02/12 04:49:42;;;;;;;;;;;1.10;99.90;;;;;;4174471;28;19921;-63
2022/02/12 04:51:43;;;;;;;;;;;1.00;99.90;;;;;;4172792;28;19913;-57
2022/02/12 04:53:44;;;;;;;;;;;1.00;99.90;;;;;;4186197;28;19935;-55
2022/02/12 04:55:45;;;;;;;;;;;1.00;99.90;;;;;;4188545;28;19966;-55
2022/02/12 04:57:46;;;;;;;;;;;1.00;99.90;;;;;;4188987;28;19913;-57
2022/02/12 04:59:47;;;;;;;;;;;1.00;99.90;;;;;;4190716;28;20364;-54
2022/02/12 05:01:50;;;;;;;;;;;1.00;99.90;;;;;;4190257;28;19923;-56
2022/02/12 05:03:52;;;;;;;;;;;1.00;99.90;;;;;;4180037;28;19917;-54
2022/02/12 05:05:53;;;;;;;;;;;1.00;99.90;;;;;;4191333;28;20310;-57
2022/02/12 05:07:54;;;;;;;;;;;0.90;99.90;;;;;;4189927;28;19923;-55
2022/02/12 05:09:55;;;;;;;;;;;0.90;99.90;;;;;;4190670;28;19920;-55
2022/02/12 05:11:56;;;;;;;;;;;0.90;99.90;;;;;;4187233;28;19923;-58
2022/02/12 05:13:56;;;;;;;;;;;0.90;99.90;;;;;;4174097;28;19945;-56
2022/02/12 05:15:57;;;;;;;;;;;0.90;99.90;;;;;;4174232;28;19921;-57
2022/02/12 05:17:58;;;;;;;;;;;0.90;99.90;;;;;;4187446;28;19916;-56
2022/02/12 05:19:59;;;;;;;;;;;0.80;99.90;;;;;;4190699;28;20447;-57
2022/02/12 05:22:00;;;;;;;;;;;0.80;99.90;;;;;;4189862;28;19917;-58
2022/02/12 05:24:01;;;;;;;;;;;0.80;99.90;;;;;;4188746;28;19917;-52
2022/02/12 05:26:02;;;;;;;;;;;0.70;99.90;;;;;;4190461;28;20291;-57
2022/02/12 05:28:03;;;;;;;;;;;0.80;99.90;;;;;;4177359;28;19936;-56
2022/02/12 05:30:04;;;;;;;;;;;0.70;99.90;;;;;;4173157;28;19924;-53
2022/02/12 05:32:05;;;;;;;;;;;0.70;99.90;;;;;;4173866;28;19920;-55
2022/02/12 05:34:06;;;;;;;;;;;0.70;99.90;;;;;;4182435;28;20699;-57
2022/02/12 05:36:09;;;;;;;;;;;0.70;99.90;;;;;;4174623;28;20407;-57
2022/02/12 05:38:10;;;;;;;;;;;0.60;99.90;;;;;;4174905;28;19917;-57
2022/02/12 05:40:10;;;;;;;;;;;0.60;99.90;;;;;;4157204;28;19988;-54
2022/02/12 05:42:11;;;;;;;;;;;0.60;99.90;;;;;;4174062;28;20024;-56
2022/02/12 05:44:12;;;;;;;;;;;0.60;99.90;;;;;;4188712;28;20410;-54
2022/02/12 05:46:13;;;;;;;;;;;0.60;99.90;;;;;;4180669;28;19917;-56
2022/02/12 05:48:16;;;;;;;;;;;0.60;99.90;;;;;;4155333;28;19917;-58
2022/02/12 05:50:17;;;;;;;;;;;0.60;99.90;;;;;;4182750;28;19950;-55
2022/02/12 05:52:18;;;;;;;;;;;0.60;99.90;;;;;;4188995;28;19916;-54
2022/02/12 05:54:19;;;;;;;;;;;0.60;99.90;;;;;;4187922;28;19966;-63
2022/02/12 05:56:21;;;;;;;;;;;0.60;99.90;;;;;;4155268;28;19917;-56
2022/02/12 05:58:22;;;;;;;;;;;0.60;99.90;;;;;;4180263;28;19962;-55
2022/02/12 06:00:23;;;;;;;;;;;0.70;99.90;;;;;;4189914;28;19969;-59
2022/02/12 06:02:24;;;;;;;;;;;0.90;99.90;;;;;;4188732;28;19912;-56
2022/02/12 06:04:25;;;;;;;;;;;1.10;99.90;;;;;;4189169;28;20322;-56
2022/02/12 06:06:26;;;;;;;;;;;1.20;99.90;;;;;;4187343;28;19923;-61
2022/02/12 06:08:27;;;;;;;;;;;1.40;99.90;;;;;;4187809;28;20332;-57
2022/02/12 06:10:28;;;;;;;;;;;1.50;99.90;;;;;;4189392;28;19920;-58
2022/02/12 06:12:29;;;;;;;;;;;1.60;99.90;;;;;;4189719;28;19920;-54
2022/02/12 06:14:30;;;;;;;;;;;1.80;99.90;;;;;;4188803;28;20364;-55
2022/02/12 06:16:31;;;;;;;;;;;1.80;99.90;;;;;;4187309;28;19978;-59
2022/02/12 06:18:32;;;;;;;;;;;1.70;99.90;;;;;;4170244;28;20003;-55
2022/02/12 06:20:33;;;;;;;;;;;1.70;99.90;;;;;;4189151;28;19958;-58
2022/02/12 06:22:34;;;;;;;;;;;1.70;99.90;;;;;;4187418;28;19927;-54
2022/02/12 06:24:35;;;;;;;;;;;2.10;99.90;;;;;;4183472;28;19916;-57
2022/02/12 06:26:40;;;;;;;;;;;2.40;99.90;;;;;;4173962;28;19920;-58
2022/02/12 06:28:41;;;;;;;;;;;2.70;99.90;;;;;;4181748;28;20037;-57
2022/02/12 06:30:41;;;;;;;;;;;3.10;99.90;;;;;;4188871;28;19917;-59
2022/02/12 06:32:43;;;;;;;;;;;3.30;99.90;;;;;;4188302;28;19917;-59
2022/02/12 06:34:44;;;;;;;;;;;3.40;99.90;;;;;;4188315;28;19916;-60
2022/02/12 06:36:44;;;;;;;;;;;3.40;99.90;;;;;;4184753;28;19923;-70
2022/02/12 06:38:45;;;;;;;;;;;3.50;99.90;;;;;;4155916;28;20305;-60
2022/02/12 06:40:48;;;;;;;;;;;4.00;99.90;;;;;;4175249;28;19924;-56
2022/02/12 06:42:49;;;;;;;;;;;4.00;99.90;;;;;;4172334;28;20410;-62
2022/02/12 06:44:51;;;;;;;;;;;3.80;99.90;;;;;;4177320;28;19990;-61
2022/02/12 06:46:52;;;;;;;;;;;3.60;99.90;;;;;;4177046;28;20340;-65
2022/02/12 06:48:53;;;;;;;;;;;3.50;99.90;;;;;;4186641;28;19962;-55
2022/02/12 06:50:55;;;;;;;;;;;3.30;99.90;;;;;;4180412;28;19927;-58
2022/02/12 06:52:56;;;;;;;;;;;3.10;99.90;;;;;;4184521;28;20365;-58
2022/02/12 06:54:58;;;;;;;;;;;3.00;99.90;;;;;;4189038;28;19920;-63
2022/02/12 06:57:00;;;;;;;;;;;2.90;99.90;;;;;;4183909;28;20323;-65
2022/02/12 06:59:00;;;;;;;;;;;2.90;99.90;;;;;;4187870;28;19924;-57
2022/02/12 07:01:02;;;;;;;;;;;2.80;99.90;;;;;;4186982;28;19978;-58
2022/02/12 07:03:03;;;;;;;;;;;2.80;99.90;;;;;;4187611;28;19916;-62
2022/02/12 07:05:05;;;;;;;;;;;2.70;99.90;;;;;;4188554;28;19915;-57
2022/02/12 07:07:05;;;;;;;;;;;2.60;99.90;;;;;;4174837;28;19920;-63
2022/02/12 07:09:06;;;;;;;;;;;2.50;99.90;;;;;;4187530;28;19925;-60
2022/02/12 07:11:08;;;;;;;;;;;2.70;99.90;;;;;;4158278;28;19917;-57
2022/02/12 07:13:11;;;;;;;;;;;2.90;99.90;;;;;;4187670;28;19997;-60
2022/02/12 07:15:12;;;;;;;;;;;2.90;99.90;;;;;;4168623;28;19916;-58
2022/02/12 07:17:13;;;;;;;;;;;2.90;99.90;;;;;;4175915;28;19919;-61
2022/02/12 07:19:14;;;;;;;;;;;2.90;99.90;;;;;;4190531;28;19912;-66
2022/02/12 07:21:15;;;;;;;;;;;3.10;99.90;;;;;;4189173;28;20830;-57
2022/02/12 07:23:16;;;;;;;;;;;3.30;99.90;;;;;;4188427;28;19917;-59
2022/02/12 07:25:17;;;;;;;;;;;3.40;99.90;;;;;;4172741;28;19963;-58
2022/02/12 07:27:18;;;;;;;;;;;3.60;99.90;;;;;;4175119;28;20343;-62
2022/02/12 07:29:19;;;;;;;;;;;3.80;99.90;;;;;;4173562;28;19978;-61
2022/02/12 07:31:20;;;;;;;;;;;3.90;99.90;;;;;;4174241;28;19916;-58
2022/02/12 07:33:22;;;;;;;;;;;4.10;99.90;;;;;;4174761;28;19978;-60
2022/02/12 07:35:23;;;;;;;;;;;4.20;99.90;;;;;;4174433;28;20290;-62
2022/02/12 07:37:24;;;;;;;;;;;4.30;99.90;;;;;;4173996;28;19912;-61
2022/02/12 07:39:27;;;;;;;;;;;4.20;99.90;;;;;;4174269;28;19928;-70
2022/02/12 07:41:33;;;;;;;;;;;4.20;99.90;;;;;;4185472;28;20330;-61
2022/02/12 07:43:35;;;;;;;;;;;4.20;99.90;;;;;;4191027;28;19957;-62
2022/02/12 07:45:36;;;;;;;;;;;4.10;99.90;;;;;;4190489;28;19962;-59
2022/02/12 07:47:37;;;;;;;;;;;4.00;99.90;;;;;;4183801;28;19913;-58
2022/02/12 07:49:38;;;;;;;;;;;4.10;99.90;;;;;;4173119;28;19929;-59
2022/02/12 07:51:39;;;;;;;;;;;4.10;99.90;;;;;;4174479;28;19913;-57
2022/02/12 07:53:40;;;;;;;;;;;4.30;99.90;;;;;;4173611;28;19913;-53
2022/02/12 07:55:41;;;;;;;;;;;4.50;99.90;;;;;;4173226;28;19991;-62
2022/02/12 07:57:42;;;;;;;;;;;4.60;99.90;;;;;;4174053;28;20743;-63
2022/02/12 07:59:43;;;;;;;;;;;4.80;99.90;;;;;;4108564;28;1861325;-62
2022/02/12 08:01:44;;;;;;;;;;;4.70;99.90;;;;;;4175492;28;20018;-63
2022/02/12 08:03:45;;;;;;;;;;;4.70;99.90;;;;;;4175130;28;19913;-62
2022/02/12 08:05:46;;;;;;;;;;;4.60;99.90;;;;;;4174802;28;19912;-62
2022/02/12 08:07:47;;;;;;;;;;;4.70;99.90;;;;;;4183502;28;20708;-60
2022/02/12 08:09:48;;;;;;;;;;;5.00;99.90;;;;;;4191151;28;19924;-62
2022/02/12 08:11:53;;;;;;;;;;;5.20;99.90;;;;;;4185257;28;20341;-60
2022/02/12 08:13:54;;;;;;;;;;;5.20;99.90;;;;;;4191178;28;19970;-59
2022/02/12 08:15:55;;;;;;;;;;;5.30;99.90;;;;;;4181739;28;20360;-59
2022/02/12 08:17:56;;;;;;;;;;;5.30;99.90;;;;;;4184264;28;19912;-59
2022/02/12 08:19:58;;;;;;;;;;;5.30;99.90;;;;;;4190801;28;19912;-60
2022/02/12 08:21:58;;;;;;;;;;;5.20;99.90;;;;;;4175488;28;19967;-60
2022/02/12 08:23:59;;;;;;;;;;;5.20;99.90;;;;;;4174313;28;19979;-60
2022/02/12 08:26:00;;;;;;;;;;;5.30;99.90;;;;;;4173240;28;19916;-57
2022/02/12 08:28:01;;;;;;;;;;;5.40;99.90;;;;;;4173857;28;19916;-61
2022/02/12 08:30:03;;;;;;;;;;;5.40;99.90;;;;;;4174279;28;19967;-64
2022/02/12 08:32:04;;;;;;;;;;;5.80;99.90;;;;;;4174427;28;19951;-60
2022/02/12 08:34:05;;;;;;;;;;;5.80;99.90;;;;;;4173806;28;20754;-63
2022/02/12 08:36:06;;;;;;;;;;;6.10;99.90;;;;;;4173964;28;19912;-60
2022/02/12 08:38:07;;;;;;;;;;;6.10;99.90;;;;;;4173703;28;19912;-62
2022/02/12 08:40:08;;;;;;;;;;;6.10;99.80;;;;;;4174400;28;20361;-59
2022/02/12 08:42:09;;;;;;;;;;;6.00;99.30;;;;;;4190335;28;19916;-59
2022/02/12 08:44:10;;;;;;;;;;;5.80;99.30;;;;;;4191069;28;20278;-60
2022/02/12 08:46:11;;;;;;;;;;;5.70;99.60;;;;;;4190691;28;19982;-62
2022/02/12 08:48:12;;;;;;;;;;;5.90;99.70;;;;;;4190545;28;20352;-64
2022/02/12 08:50:15;;;;;;;;;;;5.80;99.50;;;;;;4189805;28;20731;-62
2022/02/12 08:52:16;;;;;;;;;;;5.90;99.00;;;;;;4190770;28;19916;-62
2022/02/12 08:54:17;;;;;;;;;;;5.90;98.90;;;;;;4189942;28;20017;-61
2022/02/12 08:56:18;;;;;;;;;;;5.90;98.70;;;;;;4189177;28;19916;-60
2022/02/12 08:58:19;;;;;;;;;;;5.90;98.70;;;;;;4169952;28;19973;-65
2022/02/12 09:00:20;;;;;;;;;;;5.90;98.70;;;;;;4181220;28;19913;-60
2022/02/12 09:02:21;;;;;;;;;;;6.00;98.70;;;;;;4173782;28;19978;-63
2022/02/12 09:04:22;;;;;;;;;;;6.10;98.30;;;;;;4174480;28;19916;-62
2022/02/12 09:06:23;;;;;;;;;;;6.20;98.00;;;;;;4188831;28;19912;-59
2022/02/12 09:08:24;;;;;;;;;;;6.10;98.30;;;;;;4190116;28;19913;-61
2022/02/12 09:10:25;;;;;;;;;;;6.30;98.30;;;;;;4189913;28;19928;-67
2022/02/12 09:12:26;;;;;;;;;;;6.20;97.70;;;;;;4190069;28;19959;-61
2022/02/12 09:14:27;;;;;;;;;;;6.30;97.70;;;;;;4185337;28;19916;-60
2022/02/12 09:16:28;;;;;;;;;;;6.50;97.40;;;;;;4187600;28;20373;-62
2022/02/12 09:18:30;;;;;;;;;;;6.70;96.60;;;;;;4180396;28;19916;-61
2022/02/12 09:20:31;;;;;;;;;;;6.80;96.00;;;;;;4183942;28;19916;-67
2022/02/12 09:22:32;;;;;;;;;;;6.90;97.20;;;;;;4176956;28;19920;-60
2022/02/12 09:24:33;;;;;;;;;;;7.00;95.30;;;;;;4189654;28;19916;-61
2022/02/12 09:26:34;;;;;;;;;;;6.80;94.70;;;;;;4186352;28;20030;-60
2022/02/12 09:28:35;;;;;;;;;;;6.80;95.30;;;;;;4189825;28;19916;-62
2022/02/12 09:30:36;;;;;;;;;;;6.70;94.50;;;;;;4189743;28;19976;-60
2022/02/12 09:32:37;;;;;;;;;;;6.90;94.40;;;;;;4189949;28;19923;-63
2022/02/12 09:34:37;;;;;;;;;;;7.00;94.40;;;;;;4189194;28;19923;-60
2022/02/12 09:36:39;;;;;;;;;;;7.10;92.90;;;;;;4170783;28;19913;-64
2022/02/12 09:38:40;;;;;;;;;;;6.90;91.60;;;;;;4188196;28;19974;-64
2022/02/12 09:40:42;;;;;;;;;;;6.80;92.00;;;;;;4185410;28;19921;-58
2022/02/12 09:42:44;;;;;;;;;;;6.70;91.80;;;;;;4172882;28;19959;-62
2022/02/12 09:44:45;;;;;;;;;;;6.70;91.70;;;;;;4185143;28;19920;-62
2022/02/12 09:47:04;;;;;;;;;;;6.60;91.60;;;;;;4189105;28;19912;-64
2022/02/12 09:49:05;;;;;;;;;;;6.50;91.40;;;;;;4189531;28;19912;-61
2022/02/12 09:51:06;;;;;;;;;;;6.40;91.50;;;;;;4189146;28;19927;-62
2022/02/12 09:53:07;;;;;;;;;;;6.50;92.60;;;;;;4189471;28;19912;-61
2022/02/12 09:55:08;;;;;;;;;;;6.50;92.00;;;;;;4189119;28;20363;-64
2022/02/12 09:57:09;;;;;;;;;;;6.50;91.60;;;;;;4188894;28;19908;-62
2022/02/12 09:59:12;;;;;;;;;;;6.60;91.50;;;;;;4187926;28;19947;-60
2022/02/12 10:01:12;;;;;;;;;;;6.60;91.00;;;;;;4188994;28;20386;-62
2022/02/12 10:03:14;;;;;;;;;;;6.60;90.40;;;;;;4182428;28;19917;-61
2022/02/12 10:05:14;;;;;;;;;;;6.50;91.20;;;;;;4173232;28;19916;-61
2022/02/12 10:07:22;;;;;;;;;;;6.50;90.60;;;;;;4172917;28;20039;-61
2022/02/12 10:09:23;;;;;;;;;;;6.50;91.30;;;;;;4172496;28;19916;-61
2022/02/12 10:11:26;;;;;;;;;;;6.50;90.00;;;;;;4184264;28;19916;-64
2022/02/12 10:13:30;;;;;;;;;;;6.20;90.20;;;;;;4188678;28;19921;-56
2022/02/12 10:15:32;;;;;;;;;;;6.30;90.40;;;;;;4188737;28;19916;-59
2022/02/12 10:17:33;;;;;;;;;;;6.30;90.20;;;;;;4167794;28;20353;-61
2022/02/12 10:19:43;;;;;;;;;;;6.30;90.50;;;;;;4189163;28;19912;-62
2022/02/12 10:22:04;;;;;;;;;;;6.40;90.40;;;;;;4188928;28;19958;-61
2022/02/12 10:24:05;;;;;;;;;;;6.30;90.00;;;;;;4189203;28;20004;-66
2022/02/12 10:26:07;;;;;;;;;;;6.30;90.10;;;;;;4189112;28;19966;-60
2022/02/12 10:28:09;;;;;;;;;;;6.20;89.70;;;;;;4189112;28;20391;-61
2022/02/12 10:30:10;;;;;;;;;;;6.10;90.10;;;;;;4189126;28;19920;-59
2022/02/12 10:32:11;;;;;;;;;;;6.00;89.80;;;;;;4188466;28;20229;-61
2022/02/12 10:34:13;;;;;;;;;;;6.00;90.40;;;;;;4189008;28;19912;-63
2022/02/12 10:36:15;;;;;;;;;;;6.00;89.30;;;;;;4171120;28;19982;-61
2022/02/12 10:38:16;;;;;;;;;;;6.00;91.20;;;;;;4188233;28;20341;-61
2022/02/12 10:40:17;;;;;;;;;;;5.90;90.50;;;;;;4189212;28;19999;-64
2022/02/12 10:42:18;;;;;;;;;;;6.00;90.80;;;;;;4188848;28;19912;-62
2022/02/12 10:44:19;;;;;;;;;;;5.80;88.10;;;;;;4179708;28;19917;-59
2022/02/12 10:46:20;;;;;;;;;;;5.60;89.40;;;;;;4172165;28;19963;-61
2022/02/12 10:48:22;;;;;;;;;;;5.50;90.20;;;;;;4172683;28;20023;-61
2022/02/12 10:50:25;;;;;;;;;;;5.50;90.70;;;;;;4172224;28;19921;-60
2022/02/12 10:52:38;;;;;;;;;;;5.50;90.60;;;;;;4172554;28;19917;-64
2022/02/12 10:54:46;;;;;;;;;;;5.50;90.90;;;;;;4172298;28;19978;-64
2022/02/12 10:56:49;;;;;;;;;;;5.60;90.30;;;;;;4185904;28;20744;-65
2022/02/12 10:58:49;;;;;;;;;;;5.70;90.00;;;;;;4188725;28;19986;-65
2022/02/12 11:00:51;;;;;;;;;;;5.80;89.50;;;;;;4188181;28;19908;-64
2022/02/12 11:02:56;;;;;;;;;;;5.70;90.30;;;;;;4170547;28;20011;-64
2022/02/12 11:04:58;;;;;;;;;;;5.80;90.40;;;;;;4184347;28;19916;-61
2022/02/12 11:07:02;;;;;;;;;;;5.80;90.00;;;;;;4188816;28;20295;-59
2022/02/12 11:09:03;;;;;;;;;;;5.60;88.70;;;;;;4188308;28;19913;-58
2022/02/12 11:11:04;;;;;;;;;;;5.50;90.50;;;;;;4188687;28;19966;-60
2022/02/12 11:13:06;;;;;;;;;;;5.60;90.40;;;;;;4187608;28;19909;-61
2022/02/12 11:15:07;;;;;;;;;;;5.50;90.10;;;;;;4175901;28;19967;-61
2022/02/12 11:17:13;;;;;;;;;;;5.40;90.50;;;;;;4179135;28;20269;-60
2022/02/12 11:19:14;;;;;;;;;;;5.40;90.00;;;;;;4175773;28;20437;-61
2022/02/12 11:21:15;;;;;;;;;;;5.40;90.30;;;;;;4187719;28;19962;-60
2022/02/12 11:23:19;;;;;;;;;;;5.60;90.40;;;;;;4186867;28;19992;-59
2022/02/12 11:25:31;;;;;;;;;;;5.80;90.40;;;;;;4188302;28;19966;-61
2022/02/12 11:27:32;;;;;;;;;;;5.90;90.30;;;;;;4180794;28;19925;-59
2022/02/12 11:29:36;;;;;;;;;;;5.90;89.80;;;;;;4178924;28;20340;-60
2022/02/12 11:31:37;;;;;;;;;;;5.90;90.20;;;;;;4188541;28;19966;-62
2022/02/12 11:33:38;;;;;;;;;;;5.90;89.70;;;;;;4181783;28;19917;-61
2022/02/12 11:35:39;;;;;;;;;;;5.80;89.00;;;;;;4171962;28;19913;-60
2022/02/12 11:37:42;;;;;;;;;;;5.80;88.20;;;;;;4171598;28;19975;-60
2022/02/12 11:40:01;;;;;;;;;;;5.70;89.30;;;;;;4153751;28;19913;-58
2022/02/12 11:42:04;;;;;;;;;;;5.60;89.40;;;;;;4180372;28;20369;-59
2022/02/12 11:44:06;;;;;;;;;;;5.50;88.80;;;;;;4181989;28;20554;-63
2022/02/12 11:46:07;;;;;;;;;;;5.50;90.00;;;;;;4187038;28;20330;-60
2022/02/12 11:48:12;;;;;;;;;;;5.70;89.20;;;;;;4168424;28;19924;-59
2022/02/12 11:50:16;;;;;;;;;;;5.80;90.20;;;;;;4182251;28;19970;-61
2022/02/12 11:52:20;;;;;;;;;;;5.90;88.10;;;;;;4187771;28;19916;-59
2022/02/12 11:54:39;;;;;;;;;;;5.80;87.60;;;;;;4184543;28;19962;-60
2022/02/12 11:56:40;;;;;;;;;;;5.70;87.40;;;;;;4170272;28;19917;-60
2022/02/12 11:58:41;;;;;;;;;;;5.60;90.00;;;;;;4171280;28;20016;-63
2022/02/12 12:00:42;;;;;;;;;;;5.50;90.80;;;;;;4170931;28;19920;-63
2022/02/12 12:02:44;;;;;;;;;;;5.40;90.80;;;;;;4174550;28;19912;-61
2022/02/12 12:05:05;;;;;;;;;;;5.30;90.80;;;;;;4174439;28;20373;-62